createdAt,value
2022-09-01T00:00:02.245Z,17.14
2022-09-01T00:02:31.306Z,17.07
2022-09-01T00:04:59.626Z,17.03
2022-09-01T00:07:27.521Z,17.01
2022-09-01T00:09:55.312Z,17.01
2022-09-01T00:12:25.824Z,17.01
2022-09-01T00:14:53.455Z,16.98
2022-09-01T00:17:21.176Z,16.95
2022-09-01T00:19:49.612Z,16.90
2022-09-01T00:22:17.252Z,16.86
2022-09-01T00:24:44.979Z,16.81
2022-09-01T00:27:12.993Z,16.79
2022-09-01T00:29:43.191Z,16.73
2022-09-01T00:32:11.782Z,16.67
2022-09-01T00:34:39.755Z,16.61
2022-09-01T00:37:07.400Z,16.55
2022-09-01T00:39:35.029Z,16.48
2022-09-01T00:42:02.809Z,16.44
2022-09-01T00:44:31.372Z,16.41
2022-09-01T00:46:59.832Z,16.40
2022-09-01T00:49:27.673Z,16.36
2022-09-01T00:51:55.556Z,16.32
2022-09-01T00:54:24.135Z,16.27
2022-09-01T00:56:57.271Z,16.24
2022-09-01T00:59:25.534Z,16.17
2022-09-01T01:01:53.590Z,16.10
2022-09-01T01:04:21.333Z,16.04
2022-09-01T01:06:49.971Z,15.98
2022-09-01T01:09:17.627Z,15.93
2022-09-01T01:11:46.622Z,15.88
2022-09-01T01:14:15.712Z,15.84
2022-09-01T01:16:44.841Z,15.80
2022-09-01T01:19:35.851Z,15.74
2022-09-01T01:22:23.823Z,15.70
2022-09-01T01:24:52.490Z,15.63
2022-09-01T01:27:22.208Z,15.57
2022-09-01T01:29:53.408Z,15.50
2022-09-01T01:32:21.201Z,15.44
2022-09-01T01:34:49.740Z,15.40
2022-09-01T01:37:17.388Z,15.35
2022-09-01T01:39:44.989Z,15.31
2022-09-01T01:42:12.687Z,15.29
2022-09-01T01:44:42.785Z,15.24
2022-09-01T01:47:12.226Z,15.20
2022-09-01T01:49:40.446Z,15.17
2022-09-01T01:52:08.343Z,15.15
2022-09-01T01:54:37.612Z,15.13
2022-09-01T01:57:05.517Z,15.11
2022-09-01T01:59:34.012Z,15.10
2022-09-01T02:02:04.134Z,15.07
2022-09-01T02:04:34.568Z,15.04
2022-09-01T02:07:02.287Z,15.02
2022-09-01T02:09:29.893Z,15.00
2022-09-01T02:11:59.071Z,15.01
2022-09-01T02:14:27.048Z,15.03
2022-09-01T02:16:56.335Z,15.05
2022-09-01T02:19:24.110Z,15.02
2022-09-01T02:21:54.554Z,15.00
2022-09-01T02:24:22.567Z,15.03
2022-09-01T02:26:50.249Z,15.07
2022-09-01T02:29:21.056Z,15.05
2022-09-01T02:31:48.692Z,15.01
2022-09-01T02:34:16.653Z,14.98
2022-09-01T02:36:47.771Z,14.95
2022-09-01T02:39:15.445Z,14.91
2022-09-01T02:41:43.291Z,14.83
2022-09-01T02:44:13.050Z,14.76
2022-09-01T02:46:42.258Z,14.69
2022-09-01T02:49:15.477Z,14.62
2022-09-01T02:51:43.220Z,14.57
2022-09-01T02:54:11.198Z,14.51
2022-09-01T02:56:38.929Z,14.44
2022-09-01T02:59:13.275Z,14.39
2022-09-01T03:01:40.997Z,14.34
2022-09-01T03:04:10.063Z,14.28
2022-09-01T03:06:37.761Z,14.24
2022-09-01T03:09:05.816Z,14.18
2022-09-01T03:11:33.641Z,14.14
2022-09-01T03:14:02.165Z,14.11
2022-09-01T03:16:31.047Z,14.10
2022-09-01T03:18:58.670Z,14.08
2022-09-01T03:21:26.347Z,14.11
2022-09-01T03:23:54.326Z,14.12
2022-09-01T03:26:22.649Z,14.17
2022-09-01T03:28:53.018Z,14.24
2022-09-01T03:31:20.769Z,14.27
2022-09-01T03:33:49.304Z,14.28
2022-09-01T03:36:20.403Z,14.28
2022-09-01T03:38:49.475Z,14.23
2022-09-01T03:41:17.946Z,14.17
2022-09-01T03:43:46.019Z,14.11
2022-09-01T03:46:20.442Z,14.04
2022-09-01T03:48:50.445Z,13.98
2022-09-01T03:51:18.194Z,13.92
2022-09-01T03:53:47.532Z,13.88
2022-09-01T03:56:15.332Z,13.85
2022-09-01T03:58:47.454Z,13.88
2022-09-01T04:01:16.238Z,13.89
2022-09-01T04:03:49.175Z,13.85
2022-09-01T04:06:18.715Z,13.84
2022-09-01T04:08:46.463Z,13.82
2022-09-01T04:11:16.593Z,13.81
2022-09-01T04:13:44.338Z,13.78
2022-09-01T04:16:32.278Z,13.78
2022-09-01T04:19:00.694Z,13.85
2022-09-01T04:21:30.542Z,13.91
2022-09-01T04:24:05.473Z,13.91
2022-09-01T04:26:34.024Z,13.88
2022-09-01T04:29:02.449Z,13.82
2022-09-01T04:31:31.068Z,13.76
2022-09-01T04:33:58.755Z,13.71
2022-09-01T04:36:27.658Z,13.66
2022-09-01T04:38:56.278Z,13.62
2022-09-01T04:41:25.919Z,13.59
2022-09-01T04:43:57.359Z,13.55
2022-09-01T04:46:27.004Z,13.53
2022-09-01T04:48:54.724Z,13.49
2022-09-01T04:51:22.450Z,13.46
2022-09-01T04:53:50.813Z,13.43
2022-09-01T04:56:20.014Z,13.39
2022-09-01T04:58:48.013Z,13.36
2022-09-01T05:01:15.989Z,13.34
2022-09-01T05:03:45.478Z,13.34
2022-09-01T05:06:13.313Z,13.34
2022-09-01T05:08:42.176Z,13.34
2022-09-01T05:11:13.133Z,13.36
2022-09-01T05:13:41.230Z,13.39
2022-09-01T05:16:13.186Z,13.43
2022-09-01T05:18:41.189Z,13.46
2022-09-01T05:21:11.183Z,13.50
2022-09-01T05:23:40.675Z,13.55
2022-09-01T05:26:14.851Z,13.60
2022-09-01T05:28:43.664Z,13.67
2022-09-01T05:31:12.838Z,13.72
2022-09-01T05:33:46.139Z,13.79
2022-09-01T05:36:13.953Z,13.85
2022-09-01T05:38:42.435Z,13.94
2022-09-01T05:41:11.418Z,14.09
2022-09-01T05:43:39.517Z,14.20
2022-09-01T05:46:07.641Z,14.31
2022-09-01T05:48:40.359Z,14.45
2022-09-01T05:51:22.350Z,14.59
2022-09-01T05:53:59.003Z,14.70
2022-09-01T05:56:26.764Z,14.78
2022-09-01T06:01:46.843Z,15.02
2022-09-01T06:04:17.127Z,15.14
2022-09-01T06:07:05.356Z,15.32
2022-09-01T06:09:33.900Z,15.55
2022-09-01T06:12:02.956Z,15.76
2022-09-01T06:14:30.967Z,15.93
2022-09-01T06:16:59.170Z,16.12
2022-09-01T06:19:26.987Z,16.26
2022-09-01T06:21:56.371Z,16.41
2022-09-01T06:24:24.608Z,16.56
2022-09-01T06:26:52.231Z,16.69
2022-09-01T06:29:20.641Z,16.83
2022-09-01T06:31:52.983Z,16.96
2022-09-01T06:34:20.885Z,17.20
2022-09-01T06:36:48.709Z,17.36
2022-09-01T06:39:20.199Z,17.43
2022-09-01T06:41:49.649Z,17.52
2022-09-01T06:44:22.738Z,17.64
2022-09-01T06:46:50.433Z,17.71
2022-09-01T06:49:18.227Z,17.81
2022-09-01T06:51:52.109Z,17.89
2022-09-01T06:54:21.243Z,17.96
2022-09-01T06:59:55.610Z,18.19
2022-09-01T07:05:59.769Z,18.43
2022-09-01T07:08:06.132Z,18.55
2022-09-01T07:10:34.686Z,18.65
2022-09-01T07:13:24.120Z,18.75
2022-09-01T07:18:40.481Z,18.96
2022-09-01T07:21:38.736Z,19.06
2022-09-01T07:24:10.797Z,19.22
2022-09-01T07:26:46.873Z,19.33
2022-09-01T07:29:15.300Z,19.41
2022-09-01T07:32:43.668Z,19.50
2022-09-01T07:34:39.656Z,19.60
2022-09-01T07:39:55.764Z,19.87
2022-09-01T07:45:28.441Z,20.06
2022-09-01T07:47:56.822Z,20.17
2022-09-01T07:50:40.270Z,20.29
2022-09-01T07:53:08.747Z,20.42
2022-09-01T07:55:36.518Z,20.50
2022-09-01T07:58:04.168Z,20.60
2022-09-01T08:00:32.033Z,20.69
2022-09-01T08:03:00.284Z,20.77
2022-09-01T08:05:29.088Z,20.86
2022-09-01T08:07:56.831Z,20.96
2022-09-01T08:10:24.727Z,21.06
2022-09-01T08:12:59.742Z,21.16
2022-09-01T08:16:06.939Z,21.23
2022-09-01T08:18:15.526Z,21.32
2022-09-01T08:20:45.830Z,21.40
2022-09-01T08:23:13.701Z,21.46
2022-09-01T08:25:42.229Z,21.55
2022-09-01T08:28:09.986Z,21.64
2022-09-01T08:30:37.900Z,21.74
2022-09-01T08:33:12.721Z,21.87
2022-09-01T08:35:40.679Z,22.01
2022-09-01T08:38:08.457Z,22.15
2022-09-01T08:40:36.373Z,22.27
2022-09-01T08:43:04.360Z,22.37
2022-09-01T08:45:31.966Z,22.49
2022-09-01T08:48:29.177Z,22.63
2022-09-01T08:50:51.908Z,22.78
2022-09-01T08:53:21.073Z,22.87
2022-09-01T08:55:49.538Z,22.98
2022-09-01T08:58:17.308Z,23.09
2022-09-01T09:00:49.271Z,23.21
2022-09-01T09:03:20.790Z,23.33
2022-09-01T09:05:49.452Z,23.44
2022-09-01T09:08:17.075Z,23.44
2022-09-01T09:10:48.082Z,23.37
2022-09-01T09:13:16.846Z,23.52
2022-09-01T09:15:45.194Z,23.73
2022-09-01T09:18:20.323Z,23.78
2022-09-01T09:21:00.567Z,23.95
2022-09-01T09:23:28.245Z,23.97
2022-09-01T09:25:56.852Z,23.88
2022-09-01T09:28:25.703Z,23.88
2022-09-01T09:30:53.611Z,23.77
2022-09-01T09:36:09.460Z,23.58
2022-09-01T09:38:37.254Z,23.60
2022-09-01T09:41:17.797Z,23.85
2022-09-01T09:43:48.456Z,24.06
2022-09-01T09:46:25.322Z,24.31
2022-09-01T09:48:53.826Z,24.33
2022-09-01T09:51:21.907Z,24.22
2022-09-01T09:53:49.592Z,24.32
2022-09-01T09:56:18.129Z,24.63
2022-09-01T09:58:46.770Z,25.56
2022-09-01T10:01:17.861Z,26.40
2022-09-01T10:03:45.663Z,27.43
2022-09-01T10:06:13.643Z,27.86
2022-09-01T10:08:45.505Z,27.27
2022-09-01T10:11:14.006Z,26.91
2022-09-01T10:13:41.767Z,26.91
2022-09-01T10:16:11.305Z,26.66
2022-09-01T10:18:39.416Z,26.81
2022-09-01T10:21:07.140Z,26.77
2022-09-01T10:23:34.908Z,27.61
2022-09-01T10:26:05.892Z,28.79
2022-09-01T10:28:34.249Z,29.88
2022-09-01T10:31:02.611Z,30.74
2022-09-01T10:33:31.408Z,31.18
2022-09-01T10:35:59.313Z,30.63
2022-09-01T10:38:27.237Z,29.64
2022-09-01T10:41:07.759Z,28.82
2022-09-01T10:43:37.255Z,28.03
2022-09-01T10:46:09.071Z,27.45
2022-09-01T10:48:51.891Z,27.54
2022-09-01T10:51:28.928Z,28.07
2022-09-01T10:54:04.596Z,27.76
2022-09-01T10:56:36.574Z,27.96
2022-09-01T11:01:52.907Z,29.74
2022-09-01T11:04:21.088Z,30.55
2022-09-01T11:09:36.967Z,31.13
2022-09-01T11:12:05.101Z,32.14
2022-09-01T11:14:36.038Z,33.11
2022-09-01T11:17:04.056Z,33.79
2022-09-01T11:19:31.725Z,33.58
2022-09-01T11:21:59.772Z,32.27
2022-09-01T11:24:27.762Z,31.15
2022-09-01T11:26:55.709Z,31.68
2022-09-01T11:29:23.553Z,32.59
2022-09-01T11:31:51.312Z,33.39
2022-09-01T11:34:19.239Z,34.11
2022-09-01T11:36:48.155Z,34.71
2022-09-01T11:39:16.160Z,35.30
2022-09-01T11:41:45.387Z,34.66
2022-09-01T11:44:13.213Z,33.33
2022-09-01T11:46:43.421Z,33.59
2022-09-01T11:49:11.739Z,34.36
2022-09-01T11:51:39.645Z,35.18
2022-09-01T11:54:07.411Z,35.04
2022-09-01T11:56:35.095Z,34.90
2022-09-01T11:59:02.790Z,34.72
2022-09-01T12:01:30.458Z,34.62
2022-09-01T12:03:59.164Z,35.19
2022-09-01T12:06:27.171Z,35.67
2022-09-01T12:08:54.863Z,36.12
2022-09-01T12:11:22.671Z,36.57
2022-09-01T12:13:50.350Z,37.07
2022-09-01T12:16:19.357Z,36.69
2022-09-01T12:18:47.577Z,35.33
2022-09-01T12:21:15.237Z,34.25
2022-09-01T12:23:45.504Z,34.05
2022-09-01T12:26:13.473Z,33.97
2022-09-01T12:28:41.846Z,34.43
2022-09-01T12:31:09.567Z,35.25
2022-09-01T12:33:37.580Z,35.75
2022-09-01T12:36:05.787Z,36.17
2022-09-01T12:38:33.471Z,36.45
2022-09-01T12:41:01.353Z,36.34
2022-09-01T12:43:29.052Z,36.12
2022-09-01T12:46:00.182Z,35.89
2022-09-01T12:48:28.961Z,35.33
2022-09-01T12:50:57.911Z,34.85
2022-09-01T12:53:30.369Z,34.31
2022-09-01T12:55:59.795Z,33.87
2022-09-01T12:58:27.467Z,33.07
2022-09-01T13:00:55.851Z,32.05
2022-09-01T13:03:23.789Z,31.26
2022-09-01T13:05:51.990Z,30.59
2022-09-01T13:08:19.696Z,30.08
2022-09-01T13:10:47.458Z,29.85
2022-09-01T13:13:15.143Z,29.73
2022-09-01T13:15:43.867Z,29.32
2022-09-01T13:18:11.707Z,28.92
2022-09-01T13:20:39.402Z,28.77
2022-09-01T13:23:07.086Z,28.65
2022-09-01T13:25:35.810Z,28.41
2022-09-01T13:28:03.993Z,28.44
2022-09-01T13:30:31.688Z,28.67
2022-09-01T13:35:47.518Z,29.15
2022-09-01T13:38:16.965Z,29.32
2022-09-01T13:40:45.778Z,29.45
2022-09-01T13:43:15.365Z,29.52
2022-09-01T13:45:45.075Z,29.64
2022-09-01T13:48:16.687Z,29.54
2022-09-01T13:53:32.601Z,29.54
2022-09-01T13:56:00.534Z,29.69
2022-09-01T13:58:28.279Z,29.92
2022-09-01T14:00:59.678Z,30.06
2022-09-01T14:03:27.501Z,30.17
2022-09-01T14:05:55.705Z,30.13
2022-09-01T14:08:23.890Z,30.31
2022-09-01T14:10:52.051Z,30.60
2022-09-01T14:13:19.772Z,30.45
2022-09-01T14:15:49.348Z,30.20
2022-09-01T14:18:17.418Z,30.02
2022-09-01T14:20:45.357Z,30.14
2022-09-01T14:23:13.393Z,30.55
2022-09-01T14:25:41.870Z,30.94
2022-09-01T14:28:09.599Z,31.24
2022-09-01T14:30:37.654Z,30.99
2022-09-01T14:33:05.477Z,31.02
2022-09-01T14:35:34.517Z,31.06
2022-09-01T14:38:02.850Z,31.24
2022-09-01T14:40:30.934Z,31.50
2022-09-01T14:42:58.794Z,31.78
2022-09-01T14:45:26.528Z,31.94
2022-09-01T14:47:54.692Z,32.04
2022-09-01T14:50:23.361Z,32.13
2022-09-01T14:52:51.350Z,32.27
2022-09-01T14:55:18.948Z,32.37
2022-09-01T14:57:46.750Z,32.59
2022-09-01T15:00:14.807Z,32.78
2022-09-01T15:02:42.504Z,33.00
2022-09-01T15:05:16.041Z,33.18
2022-09-01T15:07:43.843Z,33.21
2022-09-01T15:10:11.513Z,32.84
2022-09-01T15:12:43.813Z,32.51
2022-09-01T15:15:12.302Z,32.03
2022-09-01T15:17:42.240Z,31.44
2022-09-01T15:20:32.230Z,31.30
2022-09-01T15:23:00.066Z,31.76
2022-09-01T15:25:27.809Z,32.23
2022-09-01T15:27:55.464Z,32.67
2022-09-01T15:30:23.216Z,33.10
2022-09-01T15:32:51.034Z,33.42
2022-09-01T15:35:18.961Z,33.68
2022-09-01T15:37:46.706Z,33.95
2022-09-01T15:40:14.553Z,34.06
2022-09-01T15:42:42.307Z,34.31
2022-09-01T15:45:10.008Z,34.54
2022-09-01T15:47:39.572Z,34.64
2022-09-01T15:50:09.120Z,34.67
2022-09-01T15:52:39.408Z,34.74
2022-09-01T15:55:07.155Z,34.78
2022-09-01T15:57:35.157Z,34.94
2022-09-01T16:00:02.875Z,35.09
2022-09-01T16:02:31.548Z,35.04
2022-09-01T16:05:00.430Z,34.78
2022-09-01T16:07:28.138Z,34.60
2022-09-01T16:09:58.167Z,33.81
2022-09-01T16:12:26.631Z,32.55
2022-09-01T16:14:55.297Z,31.31
2022-09-01T16:17:23.048Z,30.19
2022-09-01T16:19:50.782Z,29.29
2022-09-01T16:22:18.449Z,28.55
2022-09-01T16:24:46.501Z,27.97
2022-09-01T16:27:14.193Z,27.50
2022-09-01T16:29:45.200Z,27.06
2022-09-01T16:32:13.222Z,26.68
2022-09-01T16:34:44.764Z,26.40
2022-09-01T16:37:12.743Z,26.14
2022-09-01T16:39:40.452Z,25.89
2022-09-01T16:42:08.167Z,25.69
2022-09-01T16:44:35.874Z,25.54
2022-09-01T16:47:04.282Z,25.40
2022-09-01T16:49:32.122Z,25.27
2022-09-01T16:52:00.245Z,25.14
2022-09-01T16:54:28.050Z,25.00
2022-09-01T16:56:56.041Z,24.88
2022-09-01T16:59:23.773Z,24.79
2022-09-01T17:01:52.495Z,24.68
2022-09-01T17:04:20.252Z,24.59
2022-09-01T17:06:48.188Z,24.49
2022-09-01T17:09:15.885Z,24.41
2022-09-01T17:11:49.166Z,24.33
2022-09-01T17:14:25.993Z,24.25
2022-09-01T17:16:54.793Z,24.17
2022-09-01T17:19:24.766Z,24.10
2022-09-01T17:21:54.562Z,24.02
2022-09-01T17:24:23.111Z,23.95
2022-09-01T17:26:51.335Z,23.88
2022-09-01T17:29:23.316Z,23.83
2022-09-01T17:31:51.091Z,23.76
2022-09-01T17:34:18.981Z,23.70
2022-09-01T17:36:48.240Z,23.65
2022-09-01T17:39:16.119Z,23.57
2022-09-01T17:41:43.885Z,23.51
2022-09-01T17:44:13.035Z,23.43
2022-09-01T17:46:41.793Z,23.36
2022-09-01T17:49:10.032Z,23.27
2022-09-01T17:51:37.801Z,23.20
2022-09-01T17:54:05.515Z,23.14
2022-09-01T17:56:34.529Z,23.07
2022-09-01T17:59:02.258Z,22.99
2022-09-01T18:01:29.977Z,22.91
2022-09-01T18:03:58.073Z,22.84
2022-09-01T18:06:26.151Z,22.78
2022-09-01T18:08:54.471Z,22.71
2022-09-01T18:11:23.237Z,22.67
2022-09-01T18:13:53.199Z,22.61
2022-09-01T18:16:21.896Z,22.56
2022-09-01T18:18:49.890Z,22.50
2022-09-01T18:21:17.606Z,22.43
2022-09-01T18:23:45.286Z,22.36
2022-09-01T18:26:13.356Z,22.30
2022-09-01T18:28:42.258Z,22.23
2022-09-01T18:31:10.069Z,22.19
2022-09-01T18:33:37.736Z,22.14
2022-09-01T18:36:05.700Z,22.07
2022-09-01T18:38:33.378Z,22.00
2022-09-01T18:41:01.073Z,21.94
2022-09-01T18:43:29.316Z,21.88
2022-09-01T18:45:57.082Z,21.81
2022-09-01T18:48:24.932Z,21.76
2022-09-01T18:50:52.840Z,21.70
2022-09-01T18:53:20.866Z,21.64
2022-09-01T18:55:48.764Z,21.58
2022-09-01T18:58:16.662Z,21.54
2022-09-01T19:00:44.435Z,21.50
2022-09-01T19:03:17.392Z,21.43
2022-09-01T19:05:45.640Z,21.39
2022-09-01T19:08:13.395Z,21.33
2022-09-01T19:10:41.144Z,21.26
2022-09-01T19:13:10.036Z,21.21
2022-09-01T19:15:39.314Z,21.15
2022-09-01T19:18:07.192Z,21.10
2022-09-01T19:20:34.866Z,21.04
2022-09-01T19:23:04.858Z,20.99
2022-09-01T19:25:37.040Z,20.94
2022-09-01T19:28:04.930Z,20.90
2022-09-01T19:30:35.550Z,20.85
2022-09-01T19:33:03.592Z,20.80
2022-09-01T19:35:32.696Z,20.75
2022-09-01T19:38:02.293Z,20.69
2022-09-01T19:40:30.695Z,20.67
2022-09-01T19:42:58.550Z,20.62
2022-09-01T19:45:26.257Z,20.58
2022-09-01T19:47:54.074Z,20.52
2022-09-01T19:50:22.769Z,20.44
2022-09-01T19:52:50.584Z,20.37
2022-09-01T19:55:18.199Z,20.33
2022-09-01T19:57:46.095Z,20.27
2022-09-01T20:00:13.700Z,20.21
2022-09-01T20:02:41.660Z,20.15
2022-09-01T20:05:09.674Z,20.10
2022-09-01T20:07:37.341Z,20.05
2022-09-01T20:10:05.072Z,19.98
2022-09-01T20:12:34.217Z,19.87
2022-09-01T20:15:02.117Z,19.73
2022-09-01T20:17:29.846Z,19.58
2022-09-01T20:19:57.464Z,19.42
2022-09-01T20:22:25.256Z,19.29
2022-09-01T20:25:00.358Z,19.14
2022-09-01T20:27:28.185Z,19.02
2022-09-01T20:29:57.136Z,18.89
2022-09-01T20:32:27.806Z,18.80
2022-09-01T20:34:56.329Z,18.69
2022-09-01T20:37:24.077Z,18.64
2022-09-01T20:40:04.465Z,18.59
2022-09-01T20:42:32.603Z,18.56
2022-09-01T20:45:00.249Z,18.53
2022-09-01T20:47:28.038Z,18.52
2022-09-01T20:49:55.965Z,18.50
2022-09-01T20:52:23.658Z,18.50
2022-09-01T20:54:51.318Z,18.47
2022-09-01T20:57:19.015Z,18.45
2022-09-01T20:59:46.870Z,18.39
2022-09-01T21:02:14.778Z,18.31
2022-09-01T21:04:42.698Z,18.22
2022-09-01T21:07:10.771Z,18.14
2022-09-01T21:09:38.461Z,18.06
2022-09-01T21:12:06.519Z,17.99
2022-09-01T21:14:34.207Z,17.92
2022-09-01T21:17:03.031Z,17.84
2022-09-01T21:19:30.895Z,17.80
2022-09-01T21:21:58.810Z,17.82
2022-09-01T21:24:26.562Z,17.87
2022-09-01T21:26:56.774Z,17.88
2022-09-01T21:29:24.965Z,17.89
2022-09-01T21:31:52.642Z,17.93
2022-09-01T21:34:20.360Z,17.99
2022-09-01T21:36:48.356Z,18.07
2022-09-01T21:39:16.068Z,18.13
2022-09-01T21:41:43.696Z,18.18
2022-09-01T21:44:11.433Z,18.19
2022-09-01T21:46:39.334Z,18.18
2022-09-01T21:49:07.135Z,18.15
2022-09-01T21:51:34.794Z,18.10
2022-09-01T21:54:03.099Z,18.03
2022-09-01T21:56:31.833Z,17.98
2022-09-01T21:58:59.970Z,17.94
2022-09-01T22:01:31.949Z,17.90
2022-09-01T22:03:59.660Z,17.89
2022-09-01T22:06:27.617Z,17.88
2022-09-01T22:08:55.558Z,17.84
2022-09-01T22:11:23.185Z,17.81
2022-09-01T22:13:50.896Z,17.77
2022-09-01T22:16:18.895Z,17.69
2022-09-01T22:18:47.259Z,17.64
2022-09-01T22:21:14.969Z,17.60
2022-09-01T22:23:42.633Z,17.59
2022-09-01T22:26:14.971Z,17.58
2022-09-01T22:28:43.216Z,17.57
2022-09-01T22:31:10.967Z,17.57
2022-09-01T22:33:38.732Z,17.57
2022-09-01T22:36:06.630Z,17.59
2022-09-01T22:38:34.359Z,17.56
2022-09-01T22:41:02.422Z,17.55
2022-09-01T22:43:30.314Z,17.54
2022-09-01T22:45:58.430Z,17.53
2022-09-01T22:48:26.219Z,17.52
2022-09-01T22:50:54.015Z,17.51
2022-09-01T22:53:22.796Z,17.52
2022-09-01T22:55:50.865Z,17.54
2022-09-01T22:58:18.565Z,17.56
2022-09-01T23:00:46.350Z,17.57
2022-09-01T23:03:14.995Z,17.59
2022-09-01T23:05:43.001Z,17.59
2022-09-01T23:08:20.100Z,17.59
2022-09-01T23:10:48.148Z,17.62
2022-09-01T23:13:16.129Z,17.64
2022-09-01T23:15:43.853Z,17.66
2022-09-01T23:18:11.738Z,17.66
2022-09-01T23:20:39.497Z,17.68
2022-09-01T23:23:07.521Z,17.69
2022-09-01T23:25:35.137Z,17.67
2022-09-01T23:28:02.796Z,17.67
2022-09-01T23:30:30.474Z,17.66
2022-09-01T23:32:58.246Z,17.67
2022-09-01T23:35:26.958Z,17.69
2022-09-01T23:37:54.574Z,17.68
2022-09-01T23:40:22.722Z,17.66
2022-09-01T23:42:50.421Z,17.65
2022-09-01T23:45:18.401Z,17.64
2022-09-01T23:47:46.060Z,17.64
2022-09-01T23:50:13.667Z,17.61
2022-09-01T23:52:41.391Z,17.58
2022-09-01T23:55:09.409Z,17.57
2022-09-01T23:57:37.118Z,17.57
